sensor_id;sensor_type;location;lat;lon;timestamp;P1;durP1;ratioP1;P2;durP2;ratioP2
66298;SDS011;53098;47.658;8.578;2024-02-14T00:02:06;9.07;;;2.50;;
66298;SDS011;53098;47.658;8.578;2024-02-14T00:04:31;11.20;;;2.80;;
66298;SDS011;53098;47.658;8.578;2024-02-14T00:06:56;6.30;;;2.13;;
66298;SDS011;53098;47.658;8.578;2024-02-14T00:09:21;8.00;;;3.23;;
66298;SDS011;53098;47.658;8.578;2024-02-14T00:11:47;9.67;;;3.27;;
66298;SDS011;53098;47.658;8.578;2024-02-14T00:14:12;8.57;;;3.50;;
66298;SDS011;53098;47.658;8.578;2024-02-14T00:16:37;8.07;;;3.00;;
66298;SDS011;53098;47.658;8.578;2024-02-14T00:19:02;9.67;;;3.30;;
66298;SDS011;53098;47.658;8.578;2024-02-14T00:21:28;9.77;;;2.60;;
66298;SDS011;53098;47.658;8.578;2024-02-14T00:23:53;7.72;;;2.70;;
66298;SDS011;53098;47.658;8.578;2024-02-14T00:26:18;7.63;;;3.37;;
66298;SDS011;53098;47.658;8.578;2024-02-14T00:28:43;10.53;;;3.03;;
66298;SDS011;53098;47.658;8.578;2024-02-14T00:31:09;8.60;;;2.47;;
66298;SDS011;53098;47.658;8.578;2024-02-14T00:33:34;6.93;;;2.70;;
66298;SDS011;53098;47.658;8.578;2024-02-14T00:35:59;8.52;;;2.13;;
66298;SDS011;53098;47.658;8.578;2024-02-14T00:38:24;7.47;;;2.43;;
66298;SDS011;53098;47.658;8.578;2024-02-14T00:40:50;8.50;;;2.30;;
66298;SDS011;53098;47.658;8.578;2024-02-14T00:43:15;6.20;;;2.60;;
66298;SDS011;53098;47.658;8.578;2024-02-14T00:45:40;7.80;;;2.37;;
66298;SDS011;53098;47.658;8.578;2024-02-14T00:48:05;5.37;;;2.33;;
66298;SDS011;53098;47.658;8.578;2024-02-14T00:50:31;8.65;;;2.42;;
66298;SDS011;53098;47.658;8.578;2024-02-14T00:52:56;7.63;;;2.00;;
66298;SDS011;53098;47.658;8.578;2024-02-14T00:55:21;9.17;;;2.30;;
66298;SDS011;53098;47.658;8.578;2024-02-14T00:57:46;6.77;;;2.50;;
66298;SDS011;53098;47.658;8.578;2024-02-14T01:00:12;8.07;;;2.20;;
66298;SDS011;53098;47.658;8.578;2024-02-14T01:02:37;9.98;;;2.30;;
66298;SDS011;53098;47.658;8.578;2024-02-14T01:05:02;10.37;;;2.70;;
66298;SDS011;53098;47.658;8.578;2024-02-14T01:07:28;8.48;;;2.75;;
66298;SDS011;53098;47.658;8.578;2024-02-14T01:09:53;9.70;;;2.77;;
66298;SDS011;53098;47.658;8.578;2024-02-14T01:12:18;7.80;;;2.53;;
66298;SDS011;53098;47.658;8.578;2024-02-14T01:14:44;9.00;;;2.40;;
66298;SDS011;53098;47.658;8.578;2024-02-14T01:17:10;11.77;;;2.70;;
66298;SDS011;53098;47.658;8.578;2024-02-14T01:19:35;8.20;;;2.80;;
66298;SDS011;53098;47.658;8.578;2024-02-14T01:22:00;6.37;;;2.27;;
66298;SDS011;53098;47.658;8.578;2024-02-14T01:24:25;7.30;;;2.30;;
66298;SDS011;53098;47.658;8.578;2024-02-14T01:26:51;7.43;;;2.47;;
66298;SDS011;53098;47.658;8.578;2024-02-14T01:29:16;7.63;;;2.57;;
66298;SDS011;53098;47.658;8.578;2024-02-14T01:31:41;6.37;;;2.00;;
66298;SDS011;53098;47.658;8.578;2024-02-14T01:34:06;7.40;;;2.20;;
66298;SDS011;53098;47.658;8.578;2024-02-14T01:36:32;8.63;;;2.43;;
66298;SDS011;53098;47.658;8.578;2024-02-14T01:38:57;8.67;;;2.20;;
66298;SDS011;53098;47.658;8.578;2024-02-14T01:41:22;9.27;;;2.20;;
66298;SDS011;53098;47.658;8.578;2024-02-14T01:43:47;5.57;;;1.80;;
66298;SDS011;53098;47.658;8.578;2024-02-14T01:46:13;4.47;;;1.77;;
66298;SDS011;53098;47.658;8.578;2024-02-14T01:48:38;7.50;;;2.10;;
66298;SDS011;53098;47.658;8.578;2024-02-14T01:51:04;7.22;;;2.22;;
66298;SDS011;53098;47.658;8.578;2024-02-14T01:53:29;10.68;;;2.40;;
66298;SDS011;53098;47.658;8.578;2024-02-14T01:55:55;8.40;;;2.67;;
66298;SDS011;53098;47.658;8.578;2024-02-14T01:58:21;9.68;;;2.58;;
66298;SDS011;53098;47.658;8.578;2024-02-14T02:00:46;6.77;;;2.20;;
66298;SDS011;53098;47.658;8.578;2024-02-14T02:03:12;5.85;;;2.58;;
66298;SDS011;53098;47.658;8.578;2024-02-14T02:05:37;7.45;;;2.40;;
66298;SDS011;53098;47.658;8.578;2024-02-14T02:08:03;8.60;;;2.53;;
66298;SDS011;53098;47.658;8.578;2024-02-14T02:10:28;7.68;;;2.40;;
66298;SDS011;53098;47.658;8.578;2024-02-14T02:12:59;7.87;;;1.97;;
66298;SDS011;53098;47.658;8.578;2024-02-14T02:15:24;7.70;;;2.35;;
66298;SDS011;53098;47.658;8.578;2024-02-14T02:17:50;7.27;;;2.20;;
66298;SDS011;53098;47.658;8.578;2024-02-14T02:20:15;8.27;;;2.30;;
66298;SDS011;53098;47.658;8.578;2024-02-14T02:22:45;8.85;;;2.22;;
66298;SDS011;53098;47.658;8.578;2024-02-14T02:25:10;5.50;;;2.25;;
66298;SDS011;53098;47.658;8.578;2024-02-14T02:27:35;7.53;;;2.07;;
66298;SDS011;53098;47.658;8.578;2024-02-14T02:30:01;6.13;;;2.87;;
66298;SDS011;53098;47.658;8.578;2024-02-14T02:32:26;6.35;;;2.25;;
66298;SDS011;53098;47.658;8.578;2024-02-14T02:34:51;7.32;;;3.25;;
66298;SDS011;53098;47.658;8.578;2024-02-14T02:37:16;5.17;;;1.90;;
66298;SDS011;53098;47.658;8.578;2024-02-14T02:39:42;5.20;;;1.90;;
66298;SDS011;53098;47.658;8.578;2024-02-14T02:42:07;7.77;;;2.30;;
66298;SDS011;53098;47.658;8.578;2024-02-14T02:44:32;7.20;;;2.20;;
66298;SDS011;53098;47.658;8.578;2024-02-14T02:46:57;6.73;;;2.20;;
66298;SDS011;53098;47.658;8.578;2024-02-14T02:49:23;5.97;;;2.13;;
66298;SDS011;53098;47.658;8.578;2024-02-14T02:51:48;5.67;;;2.40;;
66298;SDS011;53098;47.658;8.578;2024-02-14T02:54:13;8.13;;;2.47;;
66298;SDS011;53098;47.658;8.578;2024-02-14T02:56:39;8.27;;;2.28;;
66298;SDS011;53098;47.658;8.578;2024-02-14T02:59:04;7.70;;;2.58;;
66298;SDS011;53098;47.658;8.578;2024-02-14T03:01:34;8.27;;;2.70;;
66298;SDS011;53098;47.658;8.578;2024-02-14T03:04:00;7.32;;;2.67;;
66298;SDS011;53098;47.658;8.578;2024-02-14T03:06:25;6.67;;;3.00;;
66298;SDS011;53098;47.658;8.578;2024-02-14T03:08:50;7.10;;;2.40;;
66298;SDS011;53098;47.658;8.578;2024-02-14T03:11:15;8.23;;;2.20;;
66298;SDS011;53098;47.658;8.578;2024-02-14T03:13:41;9.30;;;2.60;;
66298;SDS011;53098;47.658;8.578;2024-02-14T03:16:06;7.13;;;2.13;;
66298;SDS011;53098;47.658;8.578;2024-02-14T03:18:31;8.00;;;1.88;;
66298;SDS011;53098;47.658;8.578;2024-02-14T03:20:57;6.43;;;2.40;;
66298;SDS011;53098;47.658;8.578;2024-02-14T03:23:22;6.30;;;2.07;;
66298;SDS011;53098;47.658;8.578;2024-02-14T03:25:47;4.33;;;1.90;;
66298;SDS011;53098;47.658;8.578;2024-02-14T03:28:12;6.90;;;2.10;;
66298;SDS011;53098;47.658;8.578;2024-02-14T03:30:38;7.00;;;1.90;;
66298;SDS011;53098;47.658;8.578;2024-02-14T03:33:03;8.10;;;2.30;;
66298;SDS011;53098;47.658;8.578;2024-02-14T03:35:28;8.10;;;1.85;;
66298;SDS011;53098;47.658;8.578;2024-02-14T03:37:54;5.60;;;2.13;;
66298;SDS011;53098;47.658;8.578;2024-02-14T03:40:19;6.83;;;2.20;;
66298;SDS011;53098;47.658;8.578;2024-02-14T03:42:44;5.90;;;2.10;;
66298;SDS011;53098;47.658;8.578;2024-02-14T03:45:09;10.67;;;1.90;;
66298;SDS011;53098;47.658;8.578;2024-02-14T03:47:35;6.43;;;1.83;;
66298;SDS011;53098;47.658;8.578;2024-02-14T03:50:00;6.78;;;1.85;;
66298;SDS011;53098;47.658;8.578;2024-02-14T03:52:26;10.70;;;3.03;;
66298;SDS011;53098;47.658;8.578;2024-02-14T03:54:51;6.88;;;2.03;;
66298;SDS011;53098;47.658;8.578;2024-02-14T03:57:19;7.35;;;2.58;;
66298;SDS011;53098;47.658;8.578;2024-02-14T03:59:44;5.80;;;2.13;;
66298;SDS011;53098;47.658;8.578;2024-02-14T04:02:10;5.05;;;1.88;;
66298;SDS011;53098;47.658;8.578;2024-02-14T04:04:40;7.72;;;2.40;;
66298;SDS011;53098;47.658;8.578;2024-02-14T04:07:06;5.43;;;1.88;;
66298;SDS011;53098;47.658;8.578;2024-02-14T04:09:34;6.03;;;2.20;;
66298;SDS011;53098;47.658;8.578;2024-02-14T04:12:00;6.20;;;2.30;;
66298;SDS011;53098;47.658;8.578;2024-02-14T04:14:25;5.33;;;1.80;;
66298;SDS011;53098;47.658;8.578;2024-02-14T04:16:50;5.67;;;2.33;;
66298;SDS011;53098;47.658;8.578;2024-02-14T04:19:15;7.68;;;2.55;;
66298;SDS011;53098;47.658;8.578;2024-02-14T04:21:41;8.07;;;2.40;;
66298;SDS011;53098;47.658;8.578;2024-02-14T04:24:06;9.63;;;2.63;;
66298;SDS011;53098;47.658;8.578;2024-02-14T04:26:31;6.27;;;2.20;;
66298;SDS011;53098;47.658;8.578;2024-02-14T04:28:56;6.43;;;2.00;;
66298;SDS011;53098;47.658;8.578;2024-02-14T04:31:22;9.27;;;2.27;;
66298;SDS011;53098;47.658;8.578;2024-02-14T04:33:47;4.50;;;1.93;;
66298;SDS011;53098;47.658;8.578;2024-02-14T04:36:12;6.65;;;2.10;;
66298;SDS011;53098;47.658;8.578;2024-02-14T04:38:38;5.33;;;2.50;;
66298;SDS011;53098;47.658;8.578;2024-02-14T04:41:03;8.30;;;2.53;;
66298;SDS011;53098;47.658;8.578;2024-02-14T04:43:28;6.23;;;2.30;;
66298;SDS011;53098;47.658;8.578;2024-02-14T04:45:53;9.50;;;2.83;;
66298;SDS011;53098;47.658;8.578;2024-02-14T04:48:19;7.83;;;2.30;;
66298;SDS011;53098;47.658;8.578;2024-02-14T04:50:44;5.40;;;2.40;;
66298;SDS011;53098;47.658;8.578;2024-02-14T04:53:10;12.47;;;2.83;;
66298;SDS011;53098;47.658;8.578;2024-02-14T04:55:35;8.30;;;2.20;;
66298;SDS011;53098;47.658;8.578;2024-02-14T04:58:00;6.97;;;2.30;;
66298;SDS011;53098;47.658;8.578;2024-02-14T05:00:25;9.07;;;2.40;;
66298;SDS011;53098;47.658;8.578;2024-02-14T05:02:51;7.22;;;2.33;;
66298;SDS011;53098;47.658;8.578;2024-02-14T05:05:16;5.80;;;2.00;;
66298;SDS011;53098;47.658;8.578;2024-02-14T05:07:41;9.90;;;3.10;;
66298;SDS011;53098;47.658;8.578;2024-02-14T05:10:07;9.40;;;2.33;;
66298;SDS011;53098;47.658;8.578;2024-02-14T05:12:32;9.30;;;2.40;;
66298;SDS011;53098;47.658;8.578;2024-02-14T05:14:57;6.00;;;2.40;;
66298;SDS011;53098;47.658;8.578;2024-02-14T05:17:22;6.83;;;2.60;;
66298;SDS011;53098;47.658;8.578;2024-02-14T05:19:48;10.50;;;2.60;;
66298;SDS011;53098;47.658;8.578;2024-02-14T05:22:13;7.80;;;2.50;;
66298;SDS011;53098;47.658;8.578;2024-02-14T05:24:38;7.73;;;2.60;;
66298;SDS011;53098;47.658;8.578;2024-02-14T05:27:04;6.47;;;2.33;;
66298;SDS011;53098;47.658;8.578;2024-02-14T05:29:29;9.95;;;2.08;;
66298;SDS011;53098;47.658;8.578;2024-02-14T05:31:54;5.27;;;2.00;;
66298;SDS011;53098;47.658;8.578;2024-02-14T05:34:19;6.93;;;2.70;;
66298;SDS011;53098;47.658;8.578;2024-02-14T05:36:45;8.00;;;2.77;;
66298;SDS011;53098;47.658;8.578;2024-02-14T05:39:10;7.53;;;3.00;;
66298;SDS011;53098;47.658;8.578;2024-02-14T05:41:35;10.30;;;2.78;;
66298;SDS011;53098;47.658;8.578;2024-02-14T05:44:01;8.70;;;2.83;;
66298;SDS011;53098;47.658;8.578;2024-02-14T05:46:26;10.55;;;3.85;;
66298;SDS011;53098;47.658;8.578;2024-02-14T05:48:52;8.67;;;3.20;;
66298;SDS011;53098;47.658;8.578;2024-02-14T05:51:17;9.00;;;3.30;;
66298;SDS011;53098;47.658;8.578;2024-02-14T05:53:42;8.00;;;2.90;;
66298;SDS011;53098;47.658;8.578;2024-02-14T05:56:07;9.43;;;3.20;;
66298;SDS011;53098;47.658;8.578;2024-02-14T05:58:33;8.40;;;2.80;;
66298;SDS011;53098;47.658;8.578;2024-02-14T06:00:58;9.70;;;3.17;;
66298;SDS011;53098;47.658;8.578;2024-02-14T06:03:23;8.83;;;2.73;;
66298;SDS011;53098;47.658;8.578;2024-02-14T06:05:48;7.43;;;2.73;;
66298;SDS011;53098;47.658;8.578;2024-02-14T06:08:13;7.73;;;3.00;;
66298;SDS011;53098;47.658;8.578;2024-02-14T06:10:39;7.77;;;2.53;;
66298;SDS011;53098;47.658;8.578;2024-02-14T06:13:04;11.47;;;3.00;;
66298;SDS011;53098;47.658;8.578;2024-02-14T06:15:29;7.70;;;2.50;;
66298;SDS011;53098;47.658;8.578;2024-02-14T06:17:55;6.43;;;2.60;;
66298;SDS011;53098;47.658;8.578;2024-02-14T06:20:20;8.10;;;2.37;;
66298;SDS011;53098;47.658;8.578;2024-02-14T06:22:45;7.80;;;2.40;;
66298;SDS011;53098;47.658;8.578;2024-02-14T06:25:10;7.17;;;2.60;;
66298;SDS011;53098;47.658;8.578;2024-02-14T06:27:35;6.33;;;2.40;;
66298;SDS011;53098;47.658;8.578;2024-02-14T06:30:01;7.03;;;2.70;;
66298;SDS011;53098;47.658;8.578;2024-02-14T06:32:26;10.60;;;2.93;;
66298;SDS011;53098;47.658;8.578;2024-02-14T06:34:51;5.80;;;2.37;;
66298;SDS011;53098;47.658;8.578;2024-02-14T06:37:16;7.23;;;2.30;;
66298;SDS011;53098;47.658;8.578;2024-02-14T06:39:42;9.70;;;2.40;;
66298;SDS011;53098;47.658;8.578;2024-02-14T06:42:07;6.07;;;2.33;;
66298;SDS011;53098;47.658;8.578;2024-02-14T06:44:32;6.97;;;2.63;;
66298;SDS011;53098;47.658;8.578;2024-02-14T06:46:57;8.93;;;3.37;;
66298;SDS011;53098;47.658;8.578;2024-02-14T06:49:23;10.40;;;2.87;;
66298;SDS011;53098;47.658;8.578;2024-02-14T06:51:48;13.03;;;2.97;;
66298;SDS011;53098;47.658;8.578;2024-02-14T06:54:13;10.53;;;2.77;;
66298;SDS011;53098;47.658;8.578;2024-02-14T06:56:38;6.27;;;2.60;;
66298;SDS011;53098;47.658;8.578;2024-02-14T06:59:04;7.00;;;2.83;;
66298;SDS011;53098;47.658;8.578;2024-02-14T07:01:29;6.68;;;2.67;;
66298;SDS011;53098;47.658;8.578;2024-02-14T07:03:55;11.50;;;3.50;;
66298;SDS011;53098;47.658;8.578;2024-02-14T07:06:20;8.97;;;3.23;;
66298;SDS011;53098;47.658;8.578;2024-02-14T07:08:45;8.37;;;3.10;;
66298;SDS011;53098;47.658;8.578;2024-02-14T07:11:11;25.23;;;6.93;;
66298;SDS011;53098;47.658;8.578;2024-02-14T07:13:36;11.63;;;4.30;;
66298;SDS011;53098;47.658;8.578;2024-02-14T07:16:01;10.80;;;3.37;;
66298;SDS011;53098;47.658;8.578;2024-02-14T07:18:26;7.43;;;2.80;;
66298;SDS011;53098;47.658;8.578;2024-02-14T07:20:51;7.30;;;2.33;;
66298;SDS011;53098;47.658;8.578;2024-02-14T07:23:18;6.87;;;2.57;;
66298;SDS011;53098;47.658;8.578;2024-02-14T07:25:43;7.90;;;3.78;;
66298;SDS011;53098;47.658;8.578;2024-02-14T07:28:08;9.43;;;2.73;;
66298;SDS011;53098;47.658;8.578;2024-02-14T07:30:34;8.53;;;2.97;;
66298;SDS011;53098;47.658;8.578;2024-02-14T07:32:59;9.40;;;2.70;;
66298;SDS011;53098;47.658;8.578;2024-02-14T07:35:24;8.70;;;2.93;;
66298;SDS011;53098;47.658;8.578;2024-02-14T07:37:49;11.17;;;3.63;;
66298;SDS011;53098;47.658;8.578;2024-02-14T07:40:15;8.30;;;3.70;;
66298;SDS011;53098;47.658;8.578;2024-02-14T07:42:40;7.50;;;3.40;;
66298;SDS011;53098;47.658;8.578;2024-02-14T07:45:05;8.70;;;3.00;;
66298;SDS011;53098;47.658;8.578;2024-02-14T07:47:31;11.00;;;3.97;;
66298;SDS011;53098;47.658;8.578;2024-02-14T07:49:56;10.27;;;3.50;;
66298;SDS011;53098;47.658;8.578;2024-02-14T07:52:21;15.98;;;5.95;;
66298;SDS011;53098;47.658;8.578;2024-02-14T07:54:47;16.03;;;7.07;;
66298;SDS011;53098;47.658;8.578;2024-02-14T07:57:12;15.10;;;6.93;;
66298;SDS011;53098;47.658;8.578;2024-02-14T07:59:37;12.00;;;5.03;;
66298;SDS011;53098;47.658;8.578;2024-02-14T08:02:02;12.23;;;5.90;;
66298;SDS011;53098;47.658;8.578;2024-02-14T08:04:28;14.37;;;4.90;;
66298;SDS011;53098;47.658;8.578;2024-02-14T08:06:53;11.63;;;5.10;;
66298;SDS011;53098;47.658;8.578;2024-02-14T08:09:18;9.17;;;4.23;;
66298;SDS011;53098;47.658;8.578;2024-02-14T08:11:43;10.13;;;3.73;;
66298;SDS011;53098;47.658;8.578;2024-02-14T08:14:08;9.67;;;4.20;;
66298;SDS011;53098;47.658;8.578;2024-02-14T08:16:34;8.17;;;3.40;;
66298;SDS011;53098;47.658;8.578;2024-02-14T08:18:59;10.60;;;4.13;;
66298;SDS011;53098;47.658;8.578;2024-02-14T08:21:25;14.90;;;4.93;;
66298;SDS011;53098;47.658;8.578;2024-02-14T08:23:50;12.07;;;3.85;;
66298;SDS011;53098;47.658;8.578;2024-02-14T08:26:15;8.90;;;3.13;;
66298;SDS011;53098;47.658;8.578;2024-02-14T08:28:41;15.77;;;5.18;;
66298;SDS011;53098;47.658;8.578;2024-02-14T08:31:12;11.93;;;3.93;;
66298;SDS011;53098;47.658;8.578;2024-02-14T08:33:38;10.43;;;3.90;;
66298;SDS011;53098;47.658;8.578;2024-02-14T08:36:04;8.68;;;3.00;;
66298;SDS011;53098;47.658;8.578;2024-02-14T08:38:30;8.48;;;3.10;;
66298;SDS011;53098;47.658;8.578;2024-02-14T08:40:55;10.03;;;3.53;;
66298;SDS011;53098;47.658;8.578;2024-02-14T08:43:20;8.37;;;3.30;;
66298;SDS011;53098;47.658;8.578;2024-02-14T08:45:45;11.07;;;4.10;;
66298;SDS011;53098;47.658;8.578;2024-02-14T08:48:10;7.67;;;2.90;;
66298;SDS011;53098;47.658;8.578;2024-02-14T08:50:36;10.63;;;3.50;;
66298;SDS011;53098;47.658;8.578;2024-02-14T08:53:01;8.10;;;3.37;;
66298;SDS011;53098;47.658;8.578;2024-02-14T08:55:26;9.50;;;3.33;;
66298;SDS011;53098;47.658;8.578;2024-02-14T08:57:51;8.40;;;2.97;;
66298;SDS011;53098;47.658;8.578;2024-02-14T09:00:17;8.53;;;2.70;;
66298;SDS011;53098;47.658;8.578;2024-02-14T09:02:42;14.70;;;3.28;;
66298;SDS011;53098;47.658;8.578;2024-02-14T09:05:07;11.00;;;3.00;;
66298;SDS011;53098;47.658;8.578;2024-02-14T09:07:33;7.60;;;2.90;;
66298;SDS011;53098;47.658;8.578;2024-02-14T09:09:58;7.80;;;3.03;;
66298;SDS011;53098;47.658;8.578;2024-02-14T09:12:23;11.83;;;2.90;;
66298;SDS011;53098;47.658;8.578;2024-02-14T09:14:48;10.00;;;3.10;;
66298;SDS011;53098;47.658;8.578;2024-02-14T09:17:14;6.70;;;2.40;;
66298;SDS011;53098;47.658;8.578;2024-02-14T09:19:39;8.03;;;3.20;;
66298;SDS011;53098;47.658;8.578;2024-02-14T09:22:04;5.67;;;2.37;;
66298;SDS011;53098;47.658;8.578;2024-02-14T09:24:29;8.53;;;2.87;;
66298;SDS011;53098;47.658;8.578;2024-02-14T09:26:54;10.03;;;3.07;;
66298;SDS011;53098;47.658;8.578;2024-02-14T09:29:20;8.70;;;2.77;;
66298;SDS011;53098;47.658;8.578;2024-02-14T09:31:45;7.43;;;2.70;;
66298;SDS011;53098;47.658;8.578;2024-02-14T09:34:10;5.37;;;2.40;;
66298;SDS011;53098;47.658;8.578;2024-02-14T09:36:35;5.63;;;2.30;;
66298;SDS011;53098;47.658;8.578;2024-02-14T09:39:01;9.57;;;2.92;;
66298;SDS011;53098;47.658;8.578;2024-02-14T09:43:51;6.40;;;2.30;;
66298;SDS011;53098;47.658;8.578;2024-02-14T09:46:16;7.57;;;2.58;;
66298;SDS011;53098;47.658;8.578;2024-02-14T09:48:43;6.57;;;2.20;;
66298;SDS011;53098;47.658;8.578;2024-02-14T09:51:08;9.50;;;2.58;;
66298;SDS011;53098;47.658;8.578;2024-02-14T09:53:34;8.43;;;2.40;;
66298;SDS011;53098;47.658;8.578;2024-02-14T09:55:59;7.35;;;2.40;;
66298;SDS011;53098;47.658;8.578;2024-02-14T09:58:25;8.77;;;2.85;;
66298;SDS011;53098;47.658;8.578;2024-02-14T10:00:51;8.85;;;2.67;;
66298;SDS011;53098;47.658;8.578;2024-02-14T10:03:16;6.23;;;2.37;;
66298;SDS011;53098;47.658;8.578;2024-02-14T10:05:42;7.53;;;2.43;;
66298;SDS011;53098;47.658;8.578;2024-02-14T10:08:07;9.37;;;2.40;;
66298;SDS011;53098;47.658;8.578;2024-02-14T10:10:32;8.97;;;2.80;;
66298;SDS011;53098;47.658;8.578;2024-02-14T10:12:57;6.90;;;3.17;;
66298;SDS011;53098;47.658;8.578;2024-02-14T10:15:23;7.30;;;2.37;;
66298;SDS011;53098;47.658;8.578;2024-02-14T10:17:48;7.63;;;2.50;;
66298;SDS011;53098;47.658;8.578;2024-02-14T10:20:16;9.23;;;2.60;;
66298;SDS011;53098;47.658;8.578;2024-02-14T10:22:42;11.95;;;2.75;;
66298;SDS011;53098;47.658;8.578;2024-02-14T10:25:07;8.43;;;2.57;;
66298;SDS011;53098;47.658;8.578;2024-02-14T10:27:32;9.47;;;2.50;;
66298;SDS011;53098;47.658;8.578;2024-02-14T10:29:57;7.80;;;2.70;;
66298;SDS011;53098;47.658;8.578;2024-02-14T10:32:24;6.32;;;2.33;;
66298;SDS011;53098;47.658;8.578;2024-02-14T10:34:49;9.20;;;2.70;;
66298;SDS011;53098;47.658;8.578;2024-02-14T10:37:14;8.50;;;2.60;;
66298;SDS011;53098;47.658;8.578;2024-02-14T10:39:41;9.27;;;2.73;;
66298;SDS011;53098;47.658;8.578;2024-02-14T10:42:06;5.40;;;2.03;;
66298;SDS011;53098;47.658;8.578;2024-02-14T10:44:31;6.27;;;2.00;;
66298;SDS011;53098;47.658;8.578;2024-02-14T10:46:56;5.17;;;1.60;;
66298;SDS011;53098;47.658;8.578;2024-02-14T10:49:24;8.48;;;2.15;;
66298;SDS011;53098;47.658;8.578;2024-02-14T10:51:52;6.25;;;1.83;;
66298;SDS011;53098;47.658;8.578;2024-02-14T10:54:19;5.95;;;1.40;;
66298;SDS011;53098;47.658;8.578;2024-02-14T10:56:45;6.05;;;2.00;;
66298;SDS011;53098;47.658;8.578;2024-02-14T10:59:15;6.10;;;1.75;;
66298;SDS011;53098;47.658;8.578;2024-02-14T11:01:41;4.68;;;1.80;;
66298;SDS011;53098;47.658;8.578;2024-02-14T11:04:07;7.15;;;1.98;;
66298;SDS011;53098;47.658;8.578;2024-02-14T11:06:43;5.40;;;1.95;;
66298;SDS011;53098;47.658;8.578;2024-02-14T11:09:08;7.88;;;1.80;;
66298;SDS011;53098;47.658;8.578;2024-02-14T11:11:36;9.18;;;1.88;;
66298;SDS011;53098;47.658;8.578;2024-02-14T11:14:01;8.33;;;2.17;;
66298;SDS011;53098;47.658;8.578;2024-02-14T11:16:27;8.05;;;1.92;;
66298;SDS011;53098;47.658;8.578;2024-02-14T11:18:53;5.65;;;1.75;;
66298;SDS011;53098;47.658;8.578;2024-02-14T11:21:18;6.10;;;1.75;;
66298;SDS011;53098;47.658;8.578;2024-02-14T11:23:53;5.33;;;1.57;;
66298;SDS011;53098;47.658;8.578;2024-02-14T11:26:18;8.05;;;1.83;;
66298;SDS011;53098;47.658;8.578;2024-02-14T11:28:43;6.10;;;1.80;;
66298;SDS011;53098;47.658;8.578;2024-02-14T11:31:10;4.47;;;1.95;;
66298;SDS011;53098;47.658;8.578;2024-02-14T11:33:35;6.33;;;1.70;;
66298;SDS011;53098;47.658;8.578;2024-02-14T11:36:01;7.17;;;2.10;;
66298;SDS011;53098;47.658;8.578;2024-02-14T11:38:32;5.63;;;1.38;;
66298;SDS011;53098;47.658;8.578;2024-02-14T11:40:57;8.77;;;1.70;;
66298;SDS011;53098;47.658;8.578;2024-02-14T11:43:22;3.67;;;1.37;;
66298;SDS011;53098;47.658;8.578;2024-02-14T11:45:47;6.63;;;1.40;;
66298;SDS011;53098;47.658;8.578;2024-02-14T11:48:13;5.03;;;1.57;;
66298;SDS011;53098;47.658;8.578;2024-02-14T11:50:39;6.57;;;1.50;;
66298;SDS011;53098;47.658;8.578;2024-02-14T11:53:04;6.35;;;1.70;;
66298;SDS011;53098;47.658;8.578;2024-02-14T11:55:29;5.93;;;1.60;;
66298;SDS011;53098;47.658;8.578;2024-02-14T11:57:55;4.85;;;1.80;;
66298;SDS011;53098;47.658;8.578;2024-02-14T12:00:20;4.43;;;1.70;;
66298;SDS011;53098;47.658;8.578;2024-02-14T12:02:45;6.93;;;1.90;;
66298;SDS011;53098;47.658;8.578;2024-02-14T12:05:11;10.48;;;2.70;;
66298;SDS011;53098;47.658;8.578;2024-02-14T12:07:36;3.93;;;1.60;;
66298;SDS011;53098;47.658;8.578;2024-02-14T12:10:02;5.90;;;1.48;;
66298;SDS011;53098;47.658;8.578;2024-02-14T12:12:27;3.50;;;1.25;;
66298;SDS011;53098;47.658;8.578;2024-02-14T12:14:53;4.57;;;1.58;;
66298;SDS011;53098;47.658;8.578;2024-02-14T12:17:18;5.13;;;1.50;;
66298;SDS011;53098;47.658;8.578;2024-02-14T12:19:43;3.77;;;1.20;;
66298;SDS011;53098;47.658;8.578;2024-02-14T12:22:12;4.70;;;1.30;;
66298;SDS011;53098;47.658;8.578;2024-02-14T12:24:37;4.22;;;1.55;;
66298;SDS011;53098;47.658;8.578;2024-02-14T12:27:04;4.05;;;1.33;;
66298;SDS011;53098;47.658;8.578;2024-02-14T12:29:29;5.28;;;1.23;;
66298;SDS011;53098;47.658;8.578;2024-02-14T12:32:06;4.57;;;1.20;;
66298;SDS011;53098;47.658;8.578;2024-02-14T12:34:32;3.70;;;1.35;;
66298;SDS011;53098;47.658;8.578;2024-02-14T12:36:58;3.42;;;1.55;;
66298;SDS011;53098;47.658;8.578;2024-02-14T12:39:23;5.43;;;1.70;;
66298;SDS011;53098;47.658;8.578;2024-02-14T12:41:48;2.22;;;1.00;;
66298;SDS011;53098;47.658;8.578;2024-02-14T12:44:14;4.70;;;1.53;;
66298;SDS011;53098;47.658;8.578;2024-02-14T12:46:39;7.73;;;1.70;;
66298;SDS011;53098;47.658;8.578;2024-02-14T12:49:04;6.33;;;1.60;;
66298;SDS011;53098;47.658;8.578;2024-02-14T12:51:29;2.90;;;1.10;;
66298;SDS011;53098;47.658;8.578;2024-02-14T12:53:54;4.43;;;1.53;;
66298;SDS011;53098;47.658;8.578;2024-02-14T12:56:20;3.60;;;1.53;;
66298;SDS011;53098;47.658;8.578;2024-02-14T12:58:45;6.20;;;1.10;;
66298;SDS011;53098;47.658;8.578;2024-02-14T13:01:10;3.67;;;0.90;;
66298;SDS011;53098;47.658;8.578;2024-02-14T13:03:35;3.97;;;1.10;;
66298;SDS011;53098;47.658;8.578;2024-02-14T13:06:01;3.40;;;1.23;;
66298;SDS011;53098;47.658;8.578;2024-02-14T13:08:26;2.93;;;1.27;;
66298;SDS011;53098;47.658;8.578;2024-02-14T13:10:51;3.77;;;1.10;;
66298;SDS011;53098;47.658;8.578;2024-02-14T13:13:16;5.03;;;1.47;;
66298;SDS011;53098;47.658;8.578;2024-02-14T13:15:42;4.63;;;1.20;;
66298;SDS011;53098;47.658;8.578;2024-02-14T13:18:07;3.10;;;1.20;;
66298;SDS011;53098;47.658;8.578;2024-02-14T13:20:32;4.53;;;1.50;;
66298;SDS011;53098;47.658;8.578;2024-02-14T13:22:57;3.53;;;1.20;;
66298;SDS011;53098;47.658;8.578;2024-02-14T13:25:22;3.00;;;1.27;;
66298;SDS011;53098;47.658;8.578;2024-02-14T13:27:48;4.43;;;1.30;;
66298;SDS011;53098;47.658;8.578;2024-02-14T13:30:20;2.60;;;1.05;;
66298;SDS011;53098;47.658;8.578;2024-02-14T13:32:46;2.60;;;0.90;;
66298;SDS011;53098;47.658;8.578;2024-02-14T13:35:11;2.92;;;0.95;;
66298;SDS011;53098;47.658;8.578;2024-02-14T13:37:37;2.40;;;0.93;;
66298;SDS011;53098;47.658;8.578;2024-02-14T13:40:02;3.97;;;0.80;;
66298;SDS011;53098;47.658;8.578;2024-02-14T13:42:28;2.00;;;0.82;;
66298;SDS011;53098;47.658;8.578;2024-02-14T13:44:53;1.15;;;0.70;;
66298;SDS011;53098;47.658;8.578;2024-02-14T13:47:19;2.60;;;0.90;;
66298;SDS011;53098;47.658;8.578;2024-02-14T13:49:44;2.47;;;1.00;;
66298;SDS011;53098;47.658;8.578;2024-02-14T13:52:10;3.63;;;0.90;;
66298;SDS011;53098;47.658;8.578;2024-02-14T13:54:35;3.15;;;0.75;;
66298;SDS011;53098;47.658;8.578;2024-02-14T13:57:00;2.50;;;0.93;;
66298;SDS011;53098;47.658;8.578;2024-02-14T13:59:26;3.10;;;0.77;;
66298;SDS011;53098;47.658;8.578;2024-02-14T14:01:51;1.85;;;0.93;;
66298;SDS011;53098;47.658;8.578;2024-02-14T14:04:16;2.05;;;0.80;;
66298;SDS011;53098;47.658;8.578;2024-02-14T14:06:42;1.88;;;0.75;;
66298;SDS011;53098;47.658;8.578;2024-02-14T14:09:07;1.88;;;0.60;;
66298;SDS011;53098;47.658;8.578;2024-02-14T14:11:33;2.15;;;0.70;;
66298;SDS011;53098;47.658;8.578;2024-02-14T14:13:58;4.13;;;1.25;;
66298;SDS011;53098;47.658;8.578;2024-02-14T14:16:24;1.58;;;0.82;;
66298;SDS011;53098;47.658;8.578;2024-02-14T14:18:49;3.17;;;0.75;;
66298;SDS011;53098;47.658;8.578;2024-02-14T14:21:14;1.70;;;0.80;;
66298;SDS011;53098;47.658;8.578;2024-02-14T14:23:40;1.95;;;0.90;;
66298;SDS011;53098;47.658;8.578;2024-02-14T14:26:06;1.88;;;0.50;;
66298;SDS011;53098;47.658;8.578;2024-02-14T14:28:31;3.13;;;1.10;;
66298;SDS011;53098;47.658;8.578;2024-02-14T14:30:56;1.15;;;0.65;;
66298;SDS011;53098;47.658;8.578;2024-02-14T14:33:22;2.25;;;0.68;;
66298;SDS011;53098;47.658;8.578;2024-02-14T14:35:47;2.47;;;0.98;;
66298;SDS011;53098;47.658;8.578;2024-02-14T14:38:13;2.50;;;0.80;;